createdAt,value
2018-12-06T00:01:41.821Z,86.63
2018-12-06T00:04:07.563Z,86.41
2018-12-06T00:06:33.291Z,87.04
2018-12-06T00:08:59.008Z,87.47
2018-12-06T00:11:24.744Z,87.50
2018-12-06T00:13:51.081Z,86.41
2018-12-06T00:16:16.911Z,86.58
2018-12-06T00:18:46.630Z,87.02
2018-12-06T00:21:12.368Z,87.08
2018-12-06T00:23:38.082Z,86.71
2018-12-06T00:26:03.919Z,86.41
2018-12-06T00:28:29.633Z,86.84
2018-12-06T00:30:55.355Z,86.59
2018-12-06T00:33:21.089Z,86.33
2018-12-06T00:35:47.019Z,86.25
2018-12-06T00:38:12.827Z,87.06
2018-12-06T00:40:38.545Z,86.79
2018-12-06T00:43:04.259Z,86.37
2018-12-06T00:45:30.188Z,87.59
2018-12-06T00:47:56.019Z,86.70
2018-12-06T00:50:21.735Z,86.69
2018-12-06T00:52:47.456Z,87.46
2018-12-06T00:55:13.395Z,87.07
2018-12-06T00:57:39.115Z,86.94
2018-12-06T01:00:06.743Z,86.50
2018-12-06T01:02:32.575Z,87.06
2018-12-06T01:04:58.393Z,87.13
2018-12-06T01:07:24.225Z,86.54
2018-12-06T01:09:49.939Z,87.13
2018-12-06T01:12:15.670Z,86.07
2018-12-06T01:14:41.486Z,86.38
2018-12-06T01:17:08.409Z,87.05
2018-12-06T01:19:34.335Z,87.18
2018-12-06T01:22:00.456Z,87.06
2018-12-06T01:24:26.392Z,86.23
2018-12-06T01:26:52.250Z,87.38
2018-12-06T01:29:17.978Z,86.79
2018-12-06T01:31:43.706Z,87.11
2018-12-06T01:34:09.419Z,87.57
2018-12-06T01:36:35.137Z,86.73
2018-12-06T01:39:00.867Z,87.54
2018-12-06T01:41:26.682Z,87.54
2018-12-06T01:43:52.396Z,87.58
2018-12-06T01:46:18.108Z,86.99
2018-12-06T01:48:44.140Z,86.80
2018-12-06T01:51:09.859Z,87.53
2018-12-06T01:53:35.791Z,87.68
2018-12-06T01:56:01.511Z,87.03
2018-12-06T01:58:27.249Z,87.23
2018-12-06T02:00:52.952Z,88.00
2018-12-06T02:03:18.680Z,87.28
2018-12-06T02:05:44.403Z,87.46
2018-12-06T02:08:10.120Z,88.18
2018-12-06T02:10:35.934Z,87.91
2018-12-06T02:13:01.667Z,88.25
2018-12-06T02:15:27.392Z,87.78
2018-12-06T02:17:53.155Z,88.43
2018-12-06T02:20:18.974Z,88.52
2018-12-06T02:22:44.711Z,88.78
2018-12-06T02:25:10.547Z,88.08
2018-12-06T02:27:36.291Z,88.81
2018-12-06T02:30:03.524Z,88.74
2018-12-06T02:32:29.247Z,88.37
2018-12-06T02:34:55.079Z,87.67
2018-12-06T02:37:20.801Z,88.49
2018-12-06T02:39:46.632Z,88.18
2018-12-06T02:42:12.352Z,87.71
2018-12-06T02:44:38.396Z,88.55
2018-12-06T02:47:04.127Z,88.06
2018-12-06T02:49:29.950Z,88.00
2018-12-06T02:51:55.675Z,87.79
2018-12-06T02:54:23.236Z,87.82
2018-12-06T02:56:48.967Z,88.08
2018-12-06T02:59:14.698Z,88.27
2018-12-06T03:01:40.623Z,88.40
2018-12-06T03:04:06.459Z,87.63
2018-12-06T03:06:32.195Z,88.22
2018-12-06T03:08:58.135Z,87.62
2018-12-06T03:11:23.869Z,88.09
2018-12-06T03:13:49.726Z,88.86
2018-12-06T03:16:15.440Z,88.67
2018-12-06T03:18:41.154Z,89.48
2018-12-06T03:21:06.874Z,89.25
2018-12-06T03:23:32.599Z,90.05
2018-12-06T03:25:58.343Z,90.31
2018-12-06T03:28:24.061Z,90.48
2018-12-06T03:30:49.788Z,89.74
2018-12-06T03:33:15.615Z,90.34
2018-12-06T03:35:41.458Z,89.88
2018-12-06T03:38:07.185Z,90.33
2018-12-06T03:40:32.905Z,90.81
2018-12-06T03:42:58.727Z,91.50
2018-12-06T03:45:24.450Z,90.87
2018-12-06T03:47:50.266Z,91.59
2018-12-06T03:50:15.995Z,92.36
2018-12-06T03:52:41.699Z,92.78
2018-12-06T03:55:07.442Z,92.89
2018-12-06T03:57:33.267Z,91.92
2018-12-06T03:59:58.996Z,92.15
2018-12-06T04:02:24.710Z,92.87
2018-12-06T04:04:50.443Z,92.95
2018-12-06T04:07:16.152Z,92.29
2018-12-06T04:09:41.862Z,92.42
2018-12-06T04:12:07.683Z,92.45
2018-12-06T04:14:33.504Z,92.82
2018-12-06T04:16:59.338Z,93.09
2018-12-06T04:19:25.254Z,92.88
2018-12-06T04:21:51.079Z,92.51
2018-12-06T04:24:16.891Z,93.44
2018-12-06T04:26:42.715Z,93.32
2018-12-06T04:29:08.438Z,93.28
2018-12-06T04:31:35.079Z,93.60
2018-12-06T04:34:01.007Z,93.75
2018-12-06T04:36:26.715Z,92.67
2018-12-06T04:38:52.423Z,93.13
2018-12-06T04:41:18.164Z,92.64
2018-12-06T04:43:43.879Z,92.71
2018-12-06T04:46:09.594Z,93.65
2018-12-06T04:48:35.307Z,93.34
2018-12-06T04:51:01.143Z,92.92
2018-12-06T04:53:26.859Z,93.63
2018-12-06T04:55:52.570Z,93.59
2018-12-06T04:58:18.288Z,93.49
2018-12-06T05:00:44.111Z,93.00
2018-12-06T05:03:09.846Z,93.52
2018-12-06T05:05:35.580Z,93.08
2018-12-06T05:08:01.296Z,92.73
2018-12-06T05:10:27.023Z,92.47
2018-12-06T05:12:52.752Z,92.51
2018-12-06T05:15:18.561Z,92.48
2018-12-06T05:17:44.290Z,92.50
2018-12-06T05:20:10.106Z,93.13
2018-12-06T05:22:35.927Z,92.39
2018-12-06T05:25:02.255Z,92.25
2018-12-06T05:27:28.116Z,91.84
2018-12-06T05:29:53.827Z,92.34
2018-12-06T05:32:19.642Z,91.87
2018-12-06T05:34:45.346Z,92.71
2018-12-06T05:37:11.054Z,92.16
2018-12-06T05:39:36.766Z,92.06
2018-12-06T05:42:02.587Z,92.90
2018-12-06T05:44:28.287Z,93.02
2018-12-06T05:46:53.995Z,92.47
2018-12-06T05:49:19.721Z,92.92
2018-12-06T05:51:45.432Z,92.14
2018-12-06T05:54:11.267Z,93.00
2018-12-06T05:56:36.993Z,92.23
2018-12-06T05:59:02.928Z,92.29
2018-12-06T06:01:28.750Z,92.81
2018-12-06T06:03:54.519Z,92.41
2018-12-06T06:06:20.241Z,91.95
2018-12-06T06:08:45.968Z,92.32
2018-12-06T06:11:11.787Z,92.57
2018-12-06T06:13:37.627Z,91.69
2018-12-06T06:16:03.358Z,92.01
2018-12-06T06:18:29.190Z,91.92
2018-12-06T06:20:54.903Z,92.36
2018-12-06T06:23:20.627Z,92.16
2018-12-06T06:25:46.565Z,92.24
2018-12-06T06:28:12.286Z,92.20
2018-12-06T06:30:38.004Z,92.79
2018-12-06T06:33:03.723Z,92.09
2018-12-06T06:35:29.440Z,92.08
2018-12-06T06:37:55.159Z,93.19
2018-12-06T06:40:27.791Z,92.56
2018-12-06T06:42:53.517Z,93.12
2018-12-06T06:45:19.351Z,93.27
2018-12-06T06:47:45.066Z,92.73
2018-12-06T06:50:10.787Z,93.61
2018-12-06T06:52:36.515Z,93.56
2018-12-06T06:55:02.748Z,93.27
2018-12-06T06:57:28.458Z,93.01
2018-12-06T06:59:54.190Z,93.02
2018-12-06T07:02:20.004Z,93.37
2018-12-06T07:04:52.667Z,93.62
2018-12-06T07:07:18.381Z,94.39
2018-12-06T07:09:44.103Z,93.70
2018-12-06T07:12:09.829Z,94.79
2018-12-06T07:14:35.576Z,94.68
2018-12-06T07:17:01.325Z,94.37
2018-12-06T07:19:27.147Z,94.40
2018-12-06T07:21:52.980Z,95.06
2018-12-06T07:24:18.710Z,95.41
2018-12-06T07:26:44.588Z,95.27
2018-12-06T07:29:10.480Z,95.33
2018-12-06T07:31:36.338Z,94.81
2018-12-06T07:34:02.281Z,94.88
2018-12-06T07:36:28.111Z,95.79
2018-12-06T07:38:53.839Z,94.87
2018-12-06T07:41:19.597Z,94.75
2018-12-06T07:43:45.313Z,95.24
2018-12-06T07:46:11.034Z,95.72
2018-12-06T07:48:36.860Z,95.32
2018-12-06T07:51:02.705Z,95.25
2018-12-06T07:53:28.423Z,95.43
2018-12-06T07:55:54.255Z,95.25
2018-12-06T07:58:19.966Z,96.23
2018-12-06T08:00:45.752Z,95.81
2018-12-06T08:03:11.476Z,96.08
2018-12-06T08:05:37.211Z,96.18
2018-12-06T08:08:10.179Z,95.98
2018-12-06T08:10:36.030Z,95.37
2018-12-06T08:13:01.742Z,95.90
2018-12-06T08:15:27.469Z,96.28
2018-12-06T08:17:53.194Z,96.31
2018-12-06T08:20:18.914Z,96.17
2018-12-06T08:22:44.642Z,95.38
2018-12-06T08:25:10.367Z,95.73
2018-12-06T08:27:36.199Z,95.48
2018-12-06T08:30:02.750Z,96.39
2018-12-06T08:32:28.589Z,96.50
2018-12-06T08:34:54.423Z,95.95
2018-12-06T08:37:20.159Z,95.50
2018-12-06T08:39:45.867Z,96.67
2018-12-06T08:42:11.600Z,95.93
2018-12-06T08:44:37.315Z,95.68
2018-12-06T08:47:03.143Z,96.44
2018-12-06T08:49:29.067Z,95.64
2018-12-06T08:51:54.900Z,95.57
2018-12-06T08:54:20.712Z,96.26
2018-12-06T08:56:46.536Z,96.80
2018-12-06T08:59:12.376Z,96.62
2018-12-06T09:01:38.208Z,96.63
2018-12-06T09:04:04.032Z,95.65
2018-12-06T09:06:29.878Z,96.37
2018-12-06T09:08:56.632Z,95.87
2018-12-06T09:11:23.851Z,95.79
2018-12-06T09:13:49.634Z,96.65
2018-12-06T09:16:16.357Z,95.73
2018-12-06T09:18:42.326Z,95.83
2018-12-06T09:21:08.040Z,96.55
2018-12-06T09:23:33.863Z,96.72
2018-12-06T09:25:59.698Z,95.87
2018-12-06T09:28:25.643Z,96.04
2018-12-06T09:30:51.368Z,95.54
2018-12-06T09:33:17.099Z,95.62
2018-12-06T09:35:42.920Z,95.59
2018-12-06T09:38:08.764Z,95.45
2018-12-06T09:40:34.600Z,96.52
2018-12-06T09:43:00.336Z,96.14
2018-12-06T09:45:26.146Z,95.52
2018-12-06T09:47:51.872Z,95.99
2018-12-06T09:50:18.410Z,95.67
2018-12-06T09:52:44.336Z,95.60
2018-12-06T09:55:10.045Z,95.83
2018-12-06T09:57:35.775Z,95.84
2018-12-06T10:00:01.633Z,95.61
2018-12-06T10:02:27.470Z,96.34
2018-12-06T10:04:53.209Z,96.46
2018-12-06T10:07:18.923Z,96.13
2018-12-06T10:09:44.653Z,95.81
2018-12-06T10:12:10.571Z,96.76
2018-12-06T10:14:36.445Z,96.90
2018-12-06T10:17:02.274Z,96.33
2018-12-06T10:19:28.003Z,95.77
2018-12-06T10:21:53.819Z,96.68
2018-12-06T10:24:19.552Z,96.69
2018-12-06T10:26:45.263Z,96.18
2018-12-06T10:29:10.984Z,96.35
2018-12-06T10:31:36.691Z,95.57
2018-12-06T10:34:02.435Z,96.01
2018-12-06T10:36:28.263Z,96.12
2018-12-06T10:38:54.101Z,96.78
2018-12-06T10:41:19.936Z,96.55
2018-12-06T10:43:45.678Z,96.18
2018-12-06T10:46:11.398Z,96.43
2018-12-06T10:48:37.114Z,97.17
2018-12-06T10:51:15.050Z,96.54
2018-12-06T10:53:40.770Z,97.14
2018-12-06T10:56:06.499Z,96.80
2018-12-06T10:58:32.476Z,97.27
2018-12-06T11:01:07.764Z,96.17
2018-12-06T11:03:36.030Z,96.45
2018-12-06T11:06:01.764Z,97.02
2018-12-06T11:08:28.609Z,97.39
2018-12-06T11:10:54.345Z,96.55
2018-12-06T11:13:20.115Z,97.56
2018-12-06T11:15:45.951Z,96.77
2018-12-06T11:18:11.678Z,97.05
2018-12-06T11:20:37.882Z,96.71
2018-12-06T11:23:03.626Z,97.26
2018-12-06T11:25:29.471Z,96.73
2018-12-06T11:27:55.299Z,96.44
2018-12-06T11:30:21.028Z,96.43
2018-12-06T11:32:46.755Z,96.42
2018-12-06T11:35:12.704Z,97.23
2018-12-06T11:37:38.543Z,96.80
2018-12-06T11:40:04.472Z,96.33
2018-12-06T11:42:30.203Z,97.23
2018-12-06T11:44:55.924Z,96.55
2018-12-06T11:47:21.755Z,97.20
2018-12-06T11:49:47.587Z,96.93
2018-12-06T11:52:13.429Z,97.86
2018-12-06T11:54:39.145Z,96.77
2018-12-06T11:57:04.881Z,97.58
2018-12-06T11:59:30.708Z,97.45
2018-12-06T12:01:56.535Z,96.97
2018-12-06T12:04:22.360Z,96.81
2018-12-06T12:06:48.243Z,97.22
2018-12-06T12:09:14.027Z,96.98
2018-12-06T12:11:39.747Z,97.59
2018-12-06T12:14:05.572Z,97.90
2018-12-06T12:16:31.477Z,97.86
2018-12-06T12:18:57.333Z,97.62
2018-12-06T12:21:23.043Z,97.28
2018-12-06T12:23:48.765Z,97.97
2018-12-06T12:26:14.495Z,97.68
2018-12-06T12:28:40.331Z,97.10
2018-12-06T12:31:06.356Z,97.70
2018-12-06T12:33:32.183Z,97.26
2018-12-06T12:35:57.903Z,97.95
2018-12-06T12:38:23.745Z,97.39
2018-12-06T12:40:49.459Z,97.88
2018-12-06T12:43:15.191Z,97.57
2018-12-06T12:45:41.011Z,98.05
2018-12-06T12:48:06.727Z,97.75
2018-12-06T12:50:32.455Z,97.29
2018-12-06T12:52:58.279Z,97.31
2018-12-06T12:55:23.987Z,98.25
2018-12-06T12:57:49.807Z,97.59
2018-12-06T13:00:15.636Z,98.27
2018-12-06T13:02:41.456Z,98.31
2018-12-06T13:05:07.322Z,97.96
2018-12-06T13:07:33.079Z,98.56
2018-12-06T13:09:58.806Z,97.92
2018-12-06T13:12:24.632Z,98.52
2018-12-06T13:14:50.475Z,98.02
2018-12-06T13:17:16.308Z,98.03
2018-12-06T13:19:42.042Z,97.77
2018-12-06T13:22:07.779Z,98.41
2018-12-06T13:24:33.527Z,97.83
2018-12-06T13:26:59.282Z,97.83
2018-12-06T13:29:25.006Z,97.86
2018-12-06T13:31:50.740Z,98.79
2018-12-06T13:34:16.663Z,98.63
2018-12-06T13:36:42.443Z,98.57
2018-12-06T13:39:08.256Z,98.25
2018-12-06T13:41:34.195Z,98.43
2018-12-06T13:43:59.926Z,98.10
2018-12-06T13:46:25.772Z,98.60
2018-12-06T13:48:51.580Z,98.75
2018-12-06T13:51:17.311Z,98.06
2018-12-06T13:53:43.039Z,97.99
2018-12-06T13:56:09.054Z,98.48
2018-12-06T13:58:34.881Z,98.24
2018-12-06T14:01:00.838Z,98.76
2018-12-06T14:03:26.977Z,98.71
2018-12-06T14:08:25.311Z,98.02
2018-12-06T14:10:51.190Z,98.88
2018-12-06T14:13:23.454Z,98.67
2018-12-06T14:15:44.733Z,98.25
2018-12-06T14:18:10.463Z,98.16
2018-12-06T14:20:36.199Z,99.13
2018-12-06T14:23:02.014Z,98.55
2018-12-06T14:25:27.792Z,98.99
2018-12-06T14:27:53.516Z,99.23
2018-12-06T14:30:19.359Z,98.09
2018-12-06T14:32:45.112Z,98.46
2018-12-06T14:35:10.968Z,98.76
2018-12-06T14:37:37.782Z,99.16
2018-12-06T14:40:05.228Z,99.35
2018-12-06T14:42:30.963Z,98.44
2018-12-06T14:44:56.703Z,99.21
2018-12-06T14:47:22.476Z,99.11
2018-12-06T14:49:48.300Z,98.34
2018-12-06T14:52:14.028Z,99.38
2018-12-06T14:54:39.775Z,99.50
2018-12-06T14:57:05.632Z,99.25
2018-12-06T14:59:31.365Z,99.21
2018-12-06T15:01:57.107Z,98.54
2018-12-06T15:04:22.929Z,98.62
2018-12-06T15:06:48.767Z,99.41
2018-12-06T15:09:14.496Z,99.28
2018-12-06T15:11:40.344Z,99.39
2018-12-06T15:14:06.176Z,98.60
2018-12-06T15:16:32.023Z,99.36
2018-12-06T15:18:57.758Z,98.79
2018-12-06T15:21:23.492Z,98.77
2018-12-06T15:23:49.329Z,99.50
2018-12-06T15:26:15.057Z,99.53
2018-12-06T15:28:40.812Z,99.31
2018-12-06T15:31:06.543Z,99.35
2018-12-06T15:33:32.294Z,99.66
2018-12-06T15:35:58.121Z,98.84
2018-12-06T15:38:23.971Z,98.92
2018-12-06T15:40:49.696Z,98.77
2018-12-06T15:43:15.440Z,99.27
2018-12-06T15:45:41.175Z,99.49
2018-12-06T15:48:07.013Z,98.26
2018-12-06T15:50:32.957Z,98.89
2018-12-06T15:52:58.799Z,98.60
2018-12-06T15:55:24.635Z,99.44
2018-12-06T15:57:50.471Z,99.72
2018-12-06T16:00:16.299Z,99.43
2018-12-06T16:02:42.144Z,98.28
2018-12-06T16:05:07.958Z,99.45
2018-12-06T16:07:33.711Z,98.51
2018-12-06T16:09:59.654Z,99.07
2018-12-06T16:12:25.367Z,98.22
2018-12-06T16:14:51.224Z,98.49
2018-12-06T16:17:16.941Z,98.70
2018-12-06T16:19:42.687Z,99.10
2018-12-06T16:22:08.516Z,98.40
2018-12-06T16:24:34.267Z,98.45
2018-12-06T16:27:00.005Z,99.07
2018-12-06T16:29:25.739Z,98.44
2018-12-06T16:31:51.460Z,98.85
2018-12-06T16:34:17.193Z,98.32
2018-12-06T16:36:42.939Z,98.49
2018-12-06T16:39:08.800Z,98.31
2018-12-06T16:41:34.626Z,98.74
2018-12-06T16:44:00.481Z,98.12
2018-12-06T16:46:26.216Z,98.76
2018-12-06T16:48:52.079Z,97.86
2018-12-06T16:51:17.915Z,97.40
2018-12-06T16:53:43.759Z,98.13
2018-12-06T16:56:09.700Z,98.58
2018-12-06T16:58:35.529Z,98.31
2018-12-06T17:01:01.453Z,98.64
2018-12-06T17:03:27.267Z,98.03
2018-12-06T17:05:53.003Z,98.62
2018-12-06T17:08:18.731Z,98.54
2018-12-06T17:10:44.480Z,98.42
2018-12-06T17:13:10.216Z,98.56
2018-12-06T17:15:36.060Z,98.57
2018-12-06T17:18:01.808Z,98.01
2018-12-06T17:20:27.546Z,97.99
2018-12-06T17:22:53.289Z,97.94
2018-12-06T17:25:19.151Z,99.05
2018-12-06T17:27:44.874Z,99.05
2018-12-06T17:30:11.034Z,98.62
2018-12-06T17:32:36.875Z,99.08
2018-12-06T17:35:03.425Z,98.56
2018-12-06T17:37:29.273Z,99.07
2018-12-06T17:39:55.022Z,98.29
2018-12-06T17:42:20.876Z,98.38
2018-12-06T17:44:46.716Z,99.34
2018-12-06T17:47:12.472Z,98.41
2018-12-06T17:49:38.243Z,99.04
2018-12-06T17:52:03.997Z,99.00
2018-12-06T17:54:29.744Z,98.94
2018-12-06T17:56:55.588Z,98.87
2018-12-06T17:59:21.512Z,99.26
2018-12-06T18:01:47.249Z,99.14
2018-12-06T18:04:13.316Z,99.18
2018-12-06T18:06:39.164Z,98.58
2018-12-06T18:09:05.711Z,98.76
2018-12-06T18:11:31.466Z,99.31
2018-12-06T18:13:57.202Z,98.45
2018-12-06T18:16:23.063Z,98.93
2018-12-06T18:18:48.895Z,98.56
2018-12-06T18:21:14.939Z,99.15
2018-12-06T18:23:40.673Z,99.08
2018-12-06T18:26:06.523Z,99.43
2018-12-06T18:28:32.364Z,99.04
2018-12-06T18:30:58.195Z,99.35
2018-12-06T18:33:23.939Z,98.54
2018-12-06T18:35:49.772Z,98.60
2018-12-06T18:38:15.511Z,99.52
2018-12-06T18:40:41.240Z,98.73
2018-12-06T18:43:06.983Z,99.04
2018-12-06T18:45:32.711Z,99.07
2018-12-06T18:47:58.531Z,99.26
2018-12-06T18:50:24.260Z,98.38
2018-12-06T18:52:50.091Z,99.28
2018-12-06T18:55:15.827Z,98.60
2018-12-06T18:57:41.666Z,98.62
2018-12-06T19:00:08.197Z,99.28
2018-12-06T19:02:34.035Z,98.64
2018-12-06T19:04:59.768Z,99.06
2018-12-06T19:07:25.599Z,98.84
2018-12-06T19:09:51.312Z,99.21
2018-12-06T19:12:17.139Z,99.08
2018-12-06T19:14:42.992Z,99.22
2018-12-06T19:17:40.724Z,98.59
2018-12-06T19:20:06.671Z,98.52
2018-12-06T19:22:32.502Z,98.68
2018-12-06T19:24:58.242Z,98.51
2018-12-06T19:27:24.078Z,98.68
2018-12-06T19:29:49.917Z,98.84
2018-12-06T19:32:15.651Z,98.53
2018-12-06T19:34:41.812Z,98.23
2018-12-06T19:37:07.770Z,98.81
2018-12-06T19:39:33.606Z,98.41
2018-12-06T19:41:59.434Z,99.40
2018-12-06T19:44:25.173Z,98.58
2018-12-06T19:46:50.999Z,98.89
2018-12-06T19:49:16.728Z,98.62
2018-12-06T19:51:42.462Z,99.07
2018-12-06T19:54:08.216Z,98.54
2018-12-06T19:56:33.943Z,99.32
2018-12-06T19:59:06.757Z,99.29
2018-12-06T20:01:32.601Z,99.22
2018-12-06T20:03:58.447Z,98.77
2018-12-06T20:06:24.274Z,98.34
2018-12-06T20:08:50.008Z,99.25
2018-12-06T20:11:15.838Z,98.19
2018-12-06T20:13:41.663Z,98.60
2018-12-06T20:16:07.482Z,97.92
2018-12-06T20:18:33.211Z,98.87
2018-12-06T20:20:58.956Z,98.41
2018-12-06T20:23:24.692Z,98.18
2018-12-06T20:25:50.447Z,97.85
2018-12-06T20:28:16.179Z,98.06
2018-12-06T20:30:41.903Z,98.16
2018-12-06T20:33:07.705Z,98.41
2018-12-06T20:35:33.431Z,97.44
2018-12-06T20:37:59.154Z,98.05
2018-12-06T20:40:24.883Z,98.12
2018-12-06T20:42:50.617Z,97.22
2018-12-06T20:45:16.455Z,97.08
2018-12-06T20:47:42.194Z,97.15
2018-12-06T20:50:08.028Z,96.96
2018-12-06T20:52:33.759Z,96.91
2018-12-06T20:54:59.496Z,96.65
2018-12-06T20:57:25.220Z,96.97
2018-12-06T20:59:50.947Z,97.22
2018-12-06T21:02:16.675Z,97.01
2018-12-06T21:04:42.429Z,97.66
2018-12-06T21:07:08.243Z,97.21
2018-12-06T21:09:33.971Z,97.03
2018-12-06T21:11:59.798Z,97.92
2018-12-06T21:14:25.534Z,97.69
2018-12-06T21:16:51.262Z,98.18
2018-12-06T21:19:17.098Z,97.77
2018-12-06T21:21:42.820Z,97.62
2018-12-06T21:24:08.544Z,98.12
2018-12-06T21:26:34.471Z,98.33
2018-12-06T21:29:00.244Z,98.11
2018-12-06T21:31:26.091Z,97.56
2018-12-06T21:33:51.920Z,98.47
2018-12-06T21:36:17.679Z,98.28
2018-12-06T21:38:43.399Z,98.45
2018-12-06T21:41:09.133Z,98.71
2018-12-06T21:43:34.959Z,97.81
2018-12-06T21:46:00.697Z,98.40
2018-12-06T21:48:26.440Z,98.61
2018-12-06T21:50:52.172Z,97.93
2018-12-06T21:53:17.886Z,98.78
2018-12-06T21:55:43.641Z,98.46
2018-12-06T21:58:09.376Z,98.53
2018-12-06T22:00:35.111Z,97.63
2018-12-06T22:03:00.942Z,97.90
2018-12-06T22:05:26.769Z,98.63
2018-12-06T22:07:52.508Z,98.63
2018-12-06T22:10:18.232Z,98.78
2018-12-06T22:12:44.358Z,97.93
2018-12-06T22:15:10.201Z,98.70
2018-12-06T22:17:36.042Z,98.62
2018-12-06T22:20:02.270Z,98.63
2018-12-06T22:22:28.055Z,97.90
2018-12-06T22:24:53.884Z,98.84
2018-12-06T22:27:19.622Z,98.99
2018-12-06T22:29:52.372Z,98.77
2018-12-06T22:32:18.111Z,98.09
2018-12-06T22:34:44.037Z,99.09
2018-12-06T22:37:09.768Z,98.97
2018-12-06T22:39:35.599Z,98.44
2018-12-06T22:42:01.370Z,98.25
2018-12-06T22:44:27.115Z,98.96
2018-12-06T22:46:52.878Z,98.30
2018-12-06T22:49:19.065Z,99.08
2018-12-06T22:51:44.803Z,98.25
2018-12-06T22:54:10.647Z,98.44
2018-12-06T22:56:36.362Z,98.59
2018-12-06T22:59:09.155Z,98.95
2018-12-06T23:01:38.997Z,99.18
2018-12-06T23:04:04.841Z,98.15
2018-12-06T23:06:30.771Z,99.10
2018-12-06T23:08:56.599Z,98.21
2018-12-06T23:11:22.419Z,99.30
2018-12-06T23:13:48.161Z,98.67
2018-12-06T23:16:13.978Z,98.67
2018-12-06T23:18:39.804Z,99.33
2018-12-06T23:21:05.536Z,99.16
2018-12-06T23:23:31.275Z,98.42
2018-12-06T23:25:57.683Z,99.13
2018-12-06T23:28:23.403Z,99.29
2018-12-06T23:30:49.133Z,98.82
2018-12-06T23:33:14.856Z,98.22
2018-12-06T23:35:40.592Z,98.29
2018-12-06T23:38:06.333Z,98.49
2018-12-06T23:40:32.071Z,98.49
2018-12-06T23:42:57.890Z,98.65
2018-12-06T23:45:23.630Z,98.67
2018-12-06T23:47:49.463Z,98.15
2018-12-06T23:50:15.196Z,98.47
2018-12-06T23:52:41.035Z,99.23
2018-12-06T23:55:06.984Z,98.81
2018-12-06T23:57:32.709Z,98.65
2018-12-06T23:59:59.218Z,99.09
